createdAt,value
2023-03-02T00:01:41.471Z,69.35
2023-03-02T00:04:12.747Z,86.78
2023-03-02T00:06:39.546Z,85.47
2023-03-02T00:09:06.580Z,53.17
2023-03-02T00:11:36.592Z,51.45
2023-03-02T00:14:03.385Z,54.50
2023-03-02T00:16:30.649Z,52.75
2023-03-02T00:18:57.889Z,60.38
2023-03-02T00:21:24.638Z,41.92
2023-03-02T00:23:52.669Z,42.80
2023-03-02T00:26:19.534Z,41.70
2023-03-02T00:28:47.685Z,53.58
2023-03-02T00:31:14.905Z,48.47
2023-03-02T00:33:41.909Z,48.78
2023-03-02T00:36:19.313Z,59.88
2023-03-02T00:38:46.285Z,47.95
2023-03-02T00:41:14.055Z,54.65
2023-03-02T00:43:41.125Z,48.38
2023-03-02T00:46:25.193Z,99.57
2023-03-02T00:48:52.751Z,57.53
2023-03-02T00:51:19.574Z,65.43
2023-03-02T00:53:46.472Z,44.30
2023-03-02T00:56:13.374Z,47.30
2023-03-02T00:58:40.533Z,36.00
2023-03-02T01:01:11.539Z,50.15
2023-03-02T01:03:39.511Z,54.13
2023-03-02T01:06:06.657Z,57.05
2023-03-02T01:08:33.561Z,52.65
2023-03-02T01:11:01.548Z,57.80
2023-03-02T01:13:28.828Z,45.15
2023-03-02T01:16:03.272Z,69.25
2023-03-02T01:18:30.226Z,47.05
2023-03-02T01:21:05.720Z,48.88
2023-03-02T01:23:32.858Z,46.80
2023-03-02T01:25:59.733Z,55.67
2023-03-02T01:28:26.803Z,83.25
2023-03-02T01:30:54.822Z,59.90
2023-03-02T01:33:21.854Z,81.75
2023-03-02T01:35:49.619Z,55.50
2023-03-02T01:38:16.530Z,55.83
2023-03-02T01:40:43.535Z,62.58
2023-03-02T01:43:15.937Z,56.80
2023-03-02T01:45:59.375Z,44.28
2023-03-02T01:48:31.607Z,46.53
2023-03-02T01:50:59.105Z,58.03
2023-03-02T01:53:29.533Z,59.80
2023-03-02T01:55:57.827Z,66.47
2023-03-02T01:58:26.385Z,46.53
2023-03-02T02:00:56.055Z,62.72
2023-03-02T02:03:27.078Z,60.03
2023-03-02T02:06:04.027Z,56.22
2023-03-02T02:08:31.088Z,63.70
2023-03-02T02:10:58.635Z,52.70
2023-03-02T02:13:28.025Z,40.25
2023-03-02T02:15:55.083Z,58.75
2023-03-02T02:18:22.092Z,62.40
2023-03-02T02:20:51.851Z,49.42
2023-03-02T02:23:29.500Z,78.38
2023-03-02T02:25:56.221Z,60.72
2023-03-02T02:28:39.215Z,54.28
2023-03-02T02:31:15.242Z,63.30
2023-03-02T02:33:45.738Z,54.25
2023-03-02T02:36:36.050Z,56.88
2023-03-02T02:39:05.898Z,49.75
2023-03-02T02:41:38.167Z,59.50
2023-03-02T02:44:05.632Z,47.30
2023-03-02T02:46:33.277Z,49.33
2023-03-02T02:49:02.361Z,50.22
2023-03-02T02:51:30.474Z,73.60
2023-03-02T02:54:03.153Z,47.03
2023-03-02T02:56:33.456Z,59.35
2023-03-02T02:59:36.475Z,43.97
2023-03-02T03:02:03.570Z,56.90
2023-03-02T03:04:32.287Z,49.05
2023-03-02T03:07:02.209Z,31.50
2023-03-02T03:09:29.448Z,47.10
2023-03-02T03:12:15.154Z,48.00
2023-03-02T03:14:41.960Z,73.95
2023-03-02T03:17:14.019Z,73.78
2023-03-02T03:19:43.608Z,98.03
2023-03-02T03:22:12.294Z,50.95
2023-03-02T03:24:40.575Z,85.93
2023-03-02T03:27:09.159Z,47.20
2023-03-02T03:29:38.044Z,53.17
2023-03-02T03:32:06.939Z,47.03
2023-03-02T03:34:40.544Z,54.85
2023-03-02T03:37:13.342Z,87.20
2023-03-02T03:39:43.203Z,61.08
2023-03-02T03:42:11.450Z,85.22
2023-03-02T03:44:39.172Z,40.30
2023-03-02T03:47:05.994Z,47.70
2023-03-02T03:49:34.383Z,70.32
2023-03-02T03:52:01.054Z,35.88
2023-03-02T03:54:27.863Z,47.50
2023-03-02T03:56:54.888Z,37.20
2023-03-02T03:59:24.132Z,61.00
2023-03-02T04:01:56.839Z,46.00
2023-03-02T04:04:28.190Z,57.20
2023-03-02T04:06:55.203Z,37.28
2023-03-02T04:09:23.357Z,52.58
2023-03-02T04:11:52.592Z,34.72
2023-03-02T04:14:20.242Z,50.90
2023-03-02T04:16:47.427Z,46.17
2023-03-02T04:19:14.912Z,42.67
2023-03-02T04:21:47.634Z,52.10
2023-03-02T04:24:16.513Z,42.92
2023-03-02T04:26:43.982Z,32.53
2023-03-02T04:29:12.167Z,32.33
2023-03-02T04:31:39.631Z,44.80
2023-03-02T04:34:06.823Z,30.00
2023-03-02T04:36:37.019Z,32.80
2023-03-02T04:39:05.881Z,44.00
2023-03-02T04:41:32.939Z,54.72
2023-03-02T04:43:59.749Z,43.95
2023-03-02T04:46:28.213Z,50.15
2023-03-02T04:48:55.607Z,30.65
2023-03-02T04:51:26.390Z,38.60
2023-03-02T04:53:54.914Z,35.03
2023-03-02T04:56:22.093Z,35.38
2023-03-02T04:58:49.099Z,41.65
2023-03-02T05:01:18.423Z,42.88
2023-03-02T05:03:45.925Z,43.80
2023-03-02T05:06:13.158Z,37.53
2023-03-02T05:08:39.925Z,34.35
2023-03-02T05:11:07.910Z,40.78
2023-03-02T05:13:35.783Z,83.55
2023-03-02T05:16:02.860Z,40.75
2023-03-02T05:18:29.993Z,43.70
2023-03-02T05:20:57.244Z,42.22
2023-03-02T05:23:25.636Z,47.03
2023-03-02T05:25:55.420Z,31.63
2023-03-02T05:28:24.832Z,65.38
2023-03-02T05:30:52.423Z,60.50
2023-03-02T05:33:20.110Z,48.13
2023-03-02T05:35:47.444Z,33.88
2023-03-02T05:38:15.058Z,31.55
2023-03-02T05:40:45.117Z,33.83
2023-03-02T05:43:16.300Z,72.72
2023-03-02T05:45:43.251Z,56.17
2023-03-02T05:48:10.807Z,38.22
2023-03-02T05:50:37.921Z,42.20
2023-03-02T05:53:05.067Z,36.60
2023-03-02T05:55:36.785Z,54.03
2023-03-02T05:58:09.138Z,48.70
2023-03-02T06:00:36.073Z,77.53
2023-03-02T06:03:02.887Z,37.72
2023-03-02T06:05:29.632Z,68.30
2023-03-02T06:07:56.596Z,97.95
2023-03-02T06:10:24.090Z,46.33
2023-03-02T06:12:51.123Z,38.60
2023-03-02T06:15:18.443Z,72.93
2023-03-02T06:17:45.392Z,27.05
2023-03-02T06:20:13.802Z,36.28
2023-03-02T06:22:43.141Z,62.22
2023-03-02T06:25:11.581Z,45.83
2023-03-02T06:27:40.207Z,42.40
2023-03-02T06:30:09.124Z,61.28
2023-03-02T06:32:35.966Z,45.63
2023-03-02T06:35:05.190Z,37.00
2023-03-02T06:37:32.495Z,31.08
2023-03-02T06:39:59.799Z,26.60
2023-03-02T06:42:28.267Z,30.58
2023-03-02T06:44:55.208Z,47.10
2023-03-02T06:47:23.085Z,29.13
2023-03-02T06:49:49.959Z,30.85
2023-03-02T06:52:17.467Z,31.25
2023-03-02T06:54:44.591Z,45.45
2023-03-02T06:57:11.514Z,25.10
2023-03-02T06:59:38.196Z,37.90
2023-03-02T07:02:05.013Z,33.10
2023-03-02T07:04:31.793Z,33.90
2023-03-02T07:06:58.612Z,37.85
2023-03-02T07:09:25.396Z,26.05
2023-03-02T07:11:52.193Z,38.58
2023-03-02T07:14:18.930Z,56.80
2023-03-02T07:16:45.685Z,27.08
2023-03-02T07:19:13.888Z,18.88
2023-03-02T07:21:41.229Z,24.08
2023-03-02T07:24:08.572Z,28.83
2023-03-02T07:26:35.458Z,46.15
2023-03-02T07:29:02.348Z,35.70
2023-03-02T07:31:29.812Z,20.92
2023-03-02T07:33:56.515Z,29.13
2023-03-02T07:36:23.232Z,25.90
2023-03-02T07:38:50.327Z,27.88
2023-03-02T07:41:17.182Z,30.40
2023-03-02T07:43:44.265Z,19.58
2023-03-02T07:46:11.082Z,22.40
2023-03-02T07:48:37.873Z,43.60
2023-03-02T07:51:06.604Z,16.88
2023-03-02T07:53:33.399Z,36.78
2023-03-02T07:56:02.331Z,24.05
2023-03-02T07:58:29.133Z,49.00
2023-03-02T08:00:55.875Z,35.15
2023-03-02T08:03:22.694Z,23.42
2023-03-02T08:05:49.393Z,19.80
2023-03-02T08:08:16.292Z,21.20
2023-03-02T08:10:43.205Z,16.92
2023-03-02T08:13:09.883Z,32.42
2023-03-02T08:15:36.833Z,20.27
2023-03-02T08:18:03.715Z,21.00
2023-03-02T08:20:30.591Z,20.20
2023-03-02T08:22:57.599Z,17.08
2023-03-02T08:25:24.552Z,14.95
2023-03-02T08:27:51.403Z,18.25
2023-03-02T08:30:18.440Z,13.95
2023-03-02T08:32:45.238Z,12.93
2023-03-02T08:35:12.914Z,13.82
2023-03-02T08:37:39.689Z,24.13
2023-03-02T08:40:07.186Z,16.00
2023-03-02T08:42:33.863Z,18.77
2023-03-02T08:45:00.566Z,17.08
2023-03-02T08:47:28.275Z,17.77
2023-03-02T08:49:55.002Z,23.85
2023-03-02T08:52:21.659Z,14.07
2023-03-02T08:54:48.428Z,20.80
2023-03-02T08:57:15.148Z,20.75
2023-03-02T08:59:42.227Z,18.42
2023-03-02T09:02:11.839Z,15.38
2023-03-02T09:04:39.198Z,24.00
2023-03-02T09:07:06.208Z,14.52
2023-03-02T09:09:33.046Z,13.73
2023-03-02T09:11:59.874Z,13.10
2023-03-02T09:14:27.355Z,19.52
2023-03-02T09:16:54.506Z,13.50
2023-03-02T09:19:21.500Z,13.32
2023-03-02T09:21:48.585Z,13.60
2023-03-02T09:24:15.577Z,12.35
2023-03-02T09:26:43.033Z,18.50
2023-03-02T09:29:10.103Z,14.23
2023-03-02T09:31:37.883Z,13.98
2023-03-02T09:34:05.463Z,12.85
2023-03-02T09:36:32.808Z,12.10
2023-03-02T09:38:59.599Z,15.75
2023-03-02T09:41:53.466Z,14.13
2023-03-02T09:44:43.087Z,16.98
2023-03-02T09:47:38.084Z,15.23
2023-03-02T09:50:25.581Z,16.25
2023-03-02T09:53:23.948Z,17.23
2023-03-02T09:55:56.479Z,15.68
2023-03-02T09:58:26.338Z,17.45
2023-03-02T10:00:53.040Z,15.25
2023-03-02T10:03:21.592Z,16.48
2023-03-02T10:05:51.062Z,16.65
2023-03-02T10:08:26.048Z,18.10
2023-03-02T10:11:10.915Z,16.00
2023-03-02T10:13:47.745Z,14.65
2023-03-02T10:16:41.551Z,16.70
2023-03-02T10:19:37.787Z,18.00
2023-03-02T10:22:38.284Z,16.73
2023-03-02T10:25:42.660Z,14.98
2023-03-02T10:28:20.301Z,17.13
2023-03-02T10:30:59.784Z,15.80
2023-03-02T10:33:27.496Z,17.35
2023-03-02T10:35:54.478Z,21.48
2023-03-02T10:38:23.974Z,18.08
2023-03-02T10:40:59.835Z,17.95
2023-03-02T10:43:43.978Z,18.08
2023-03-02T10:46:12.541Z,16.58
2023-03-02T10:48:53.471Z,19.98
2023-03-02T10:51:28.246Z,17.52
2023-03-02T10:54:11.197Z,12.95
2023-03-02T10:56:38.741Z,15.88
2023-03-02T10:59:30.494Z,16.88
2023-03-02T11:02:02.588Z,18.33
2023-03-02T11:04:30.797Z,16.48
2023-03-02T11:07:18.763Z,17.27
2023-03-02T11:10:17.341Z,14.85
2023-03-02T11:12:47.958Z,21.63
2023-03-02T11:15:35.692Z,16.65
2023-03-02T11:18:07.751Z,20.73
2023-03-02T11:20:48.289Z,18.85
2023-03-02T11:23:31.649Z,26.30
2023-03-02T11:26:05.291Z,22.75
2023-03-02T11:28:39.985Z,21.30
2023-03-02T11:31:14.510Z,23.92
2023-03-02T11:33:51.478Z,20.58
2023-03-02T11:36:23.758Z,21.58
2023-03-02T11:38:55.080Z,22.23
2023-03-02T11:41:36.712Z,24.10
2023-03-02T11:44:24.168Z,23.58
2023-03-02T11:46:59.060Z,23.55
2023-03-02T11:49:44.095Z,21.42
2023-03-02T11:52:33.726Z,22.65
2023-03-02T11:55:07.821Z,25.50
2023-03-02T11:57:39.786Z,21.25
2023-03-02T12:00:15.154Z,21.50
2023-03-02T12:02:41.825Z,23.55
2023-03-02T12:05:25.295Z,23.88
2023-03-02T12:08:05.526Z,24.92
2023-03-02T12:10:38.918Z,23.52
2023-03-02T12:13:14.892Z,26.98
2023-03-02T12:15:47.673Z,23.60
2023-03-02T12:18:35.573Z,27.33
2023-03-02T12:21:11.701Z,26.60
2023-03-02T12:23:55.478Z,25.50
2023-03-02T12:26:34.048Z,26.45
2023-03-02T12:29:27.540Z,26.95
2023-03-02T12:31:56.939Z,27.30
2023-03-02T12:34:35.359Z,30.23
2023-03-02T12:37:24.148Z,27.83
2023-03-02T12:40:19.721Z,28.75
2023-03-02T12:42:49.481Z,28.17
2023-03-02T12:45:57.641Z,28.75
2023-03-02T12:48:29.438Z,33.22
2023-03-02T12:51:00.828Z,30.42
2023-03-02T12:53:28.573Z,34.80
2023-03-02T12:55:55.449Z,39.63
2023-03-02T12:58:28.934Z,36.67
2023-03-02T13:00:58.881Z,35.35
2023-03-02T13:03:26.839Z,36.83
2023-03-02T13:06:15.453Z,38.45
2023-03-02T13:08:47.937Z,37.58
2023-03-02T13:11:22.663Z,41.63
2023-03-02T13:13:50.008Z,36.20
2023-03-02T13:16:21.908Z,40.70
2023-03-02T13:18:49.958Z,37.60
2023-03-02T13:21:18.712Z,40.47
2023-03-02T13:23:51.408Z,39.50
2023-03-02T13:26:54.341Z,39.17
2023-03-02T13:29:23.095Z,43.58
2023-03-02T13:31:50.094Z,41.50
2023-03-02T13:34:28.281Z,44.90
2023-03-02T13:36:55.563Z,37.28
2023-03-02T13:39:26.896Z,33.70
2023-03-02T13:42:01.836Z,34.05
2023-03-02T13:44:33.535Z,35.25
2023-03-02T13:47:01.515Z,33.67
2023-03-02T13:49:34.206Z,37.83
2023-03-02T13:52:27.856Z,33.33
2023-03-02T13:54:54.614Z,35.63
2023-03-02T13:57:29.753Z,36.20
2023-03-02T13:59:58.608Z,36.13
2023-03-02T14:02:28.127Z,31.15
2023-03-02T14:04:55.752Z,31.27
2023-03-02T14:07:22.823Z,34.28
2023-03-02T14:09:49.739Z,36.97
2023-03-02T14:12:24.660Z,33.72
2023-03-02T14:14:52.928Z,32.95
2023-03-02T14:17:23.419Z,30.02
2023-03-02T14:19:52.980Z,33.25
2023-03-02T14:22:20.256Z,33.55
2023-03-02T14:24:47.412Z,32.55
2023-03-02T14:27:16.180Z,33.03
2023-03-02T14:29:44.860Z,32.22
2023-03-02T14:32:13.682Z,35.25
2023-03-02T14:34:41.829Z,32.15
2023-03-02T14:37:21.952Z,33.33
2023-03-02T14:39:54.314Z,35.05
2023-03-02T14:42:22.616Z,34.08
2023-03-02T14:44:51.271Z,31.92
2023-03-02T14:47:19.552Z,32.70
2023-03-02T14:49:46.424Z,34.75
2023-03-02T14:52:23.536Z,33.92
2023-03-02T14:54:57.715Z,30.63
2023-03-02T14:57:26.742Z,31.05
2023-03-02T14:59:54.784Z,34.75
2023-03-02T15:02:26.191Z,35.67
2023-03-02T15:04:57.053Z,32.28
2023-03-02T15:07:26.595Z,35.53
2023-03-02T15:09:55.555Z,34.65
2023-03-02T15:12:22.366Z,33.47
2023-03-02T15:14:49.255Z,38.72
2023-03-02T15:17:16.787Z,34.13
2023-03-02T15:19:43.537Z,33.25
2023-03-02T15:22:11.315Z,33.90
2023-03-02T15:24:38.121Z,34.13
2023-03-02T15:27:04.845Z,29.70
2023-03-02T15:29:31.581Z,36.45
2023-03-02T15:31:58.456Z,34.67
2023-03-02T15:34:25.443Z,37.38
2023-03-02T15:36:52.076Z,32.83
2023-03-02T15:39:18.731Z,31.30
2023-03-02T15:41:45.806Z,30.30
2023-03-02T15:44:22.753Z,31.45
2023-03-02T15:47:00.014Z,24.73
2023-03-02T15:49:29.380Z,27.42
2023-03-02T15:51:59.412Z,28.38
2023-03-02T15:54:27.385Z,28.65
2023-03-02T15:56:54.243Z,26.70
2023-03-02T15:59:23.197Z,26.48
2023-03-02T16:01:50.055Z,31.75
2023-03-02T16:04:17.093Z,30.17
2023-03-02T16:06:44.519Z,28.67
2023-03-02T16:09:11.379Z,26.80
2023-03-02T16:11:38.722Z,27.80
2023-03-02T16:14:05.422Z,25.50
2023-03-02T16:16:32.366Z,26.90
2023-03-02T16:18:59.426Z,28.50
2023-03-02T16:21:28.697Z,25.58
2023-03-02T16:24:03.084Z,24.25
2023-03-02T16:26:34.441Z,24.13
2023-03-02T16:29:01.770Z,25.27
2023-03-02T16:31:32.400Z,25.38
2023-03-02T16:34:03.701Z,26.52
2023-03-02T16:36:30.567Z,28.83
2023-03-02T16:38:57.529Z,30.58
2023-03-02T16:41:24.419Z,26.45
2023-03-02T16:43:56.920Z,32.35
2023-03-02T16:46:27.036Z,27.92
2023-03-02T16:48:54.200Z,26.25
2023-03-02T16:51:22.001Z,26.23
2023-03-02T16:53:49.140Z,27.85
2023-03-02T16:56:15.945Z,30.25
2023-03-02T16:58:43.745Z,28.08
2023-03-02T17:01:14.177Z,26.75
2023-03-02T17:03:41.948Z,30.83
2023-03-02T17:06:10.989Z,31.63
2023-03-02T17:08:37.980Z,29.63
2023-03-02T17:11:04.974Z,27.05
2023-03-02T17:13:32.263Z,31.73
2023-03-02T17:15:59.440Z,30.42
2023-03-02T17:18:27.615Z,26.92
2023-03-02T17:20:56.526Z,30.33
2023-03-02T17:23:24.102Z,27.58
2023-03-02T17:25:51.016Z,30.83
2023-03-02T17:28:17.962Z,24.70
2023-03-02T17:30:45.078Z,25.85
2023-03-02T17:33:12.404Z,26.95
2023-03-02T17:35:39.293Z,20.45
2023-03-02T17:38:06.281Z,23.55
2023-03-02T17:40:33.305Z,22.85
2023-03-02T17:43:00.324Z,17.90
2023-03-02T17:45:28.637Z,16.15
2023-03-02T17:47:57.481Z,20.02
2023-03-02T17:50:25.084Z,21.08
2023-03-02T17:52:51.975Z,23.40
2023-03-02T17:55:18.884Z,24.48
2023-03-02T17:57:45.593Z,23.52
2023-03-02T18:00:18.529Z,35.05
2023-03-02T18:02:45.644Z,22.70
2023-03-02T18:05:12.842Z,29.55
2023-03-02T18:07:39.760Z,24.45
2023-03-02T18:10:07.901Z,21.58
2023-03-02T18:12:35.701Z,18.88
2023-03-02T18:15:02.776Z,16.95
2023-03-02T18:17:29.490Z,14.82
2023-03-02T18:19:56.224Z,18.75
2023-03-02T18:22:23.083Z,24.27
2023-03-02T18:24:51.878Z,20.70
2023-03-02T18:27:19.283Z,20.10
2023-03-02T18:29:46.128Z,31.42
2023-03-02T18:32:13.581Z,30.83
2023-03-02T18:34:40.595Z,33.00
2023-03-02T18:37:07.575Z,28.98
2023-03-02T18:39:35.243Z,25.23
2023-03-02T18:42:03.302Z,27.88
2023-03-02T18:44:31.148Z,47.95
2023-03-02T18:46:58.956Z,42.97
2023-03-02T18:49:26.168Z,37.30
2023-03-02T18:51:55.203Z,54.25
2023-03-02T18:54:22.944Z,53.45
2023-03-02T18:56:49.739Z,51.47
2023-03-02T18:59:17.965Z,39.88
2023-03-02T19:01:46.406Z,43.60
2023-03-02T19:04:14.431Z,24.88
2023-03-02T19:06:43.108Z,45.25
2023-03-02T19:09:11.392Z,48.38
2023-03-02T19:11:38.483Z,54.40
2023-03-02T19:14:05.310Z,63.30
2023-03-02T19:16:32.798Z,40.65
2023-03-02T19:18:59.709Z,31.90
2023-03-02T19:21:26.596Z,27.48
2023-03-02T19:23:53.498Z,42.17
2023-03-02T19:26:20.666Z,46.35
2023-03-02T19:28:47.453Z,32.08
2023-03-02T19:31:15.429Z,48.13
2023-03-02T19:33:45.112Z,42.25
2023-03-02T19:36:19.314Z,45.83
2023-03-02T19:38:46.084Z,24.42
2023-03-02T19:41:16.922Z,55.38
2023-03-02T19:43:46.829Z,34.33
2023-03-02T19:46:15.073Z,27.30
2023-03-02T19:48:42.448Z,40.83
2023-03-02T19:51:11.430Z,43.33
2023-03-02T19:53:40.370Z,48.03
2023-03-02T19:56:11.866Z,31.80
2023-03-02T19:58:47.751Z,28.27
2023-03-02T20:01:22.559Z,36.53
2023-03-02T20:03:54.427Z,40.80
2023-03-02T20:06:25.325Z,59.67
2023-03-02T20:08:52.158Z,35.90
2023-03-02T20:11:19.100Z,32.00
2023-03-02T20:13:46.134Z,47.75
2023-03-02T20:16:16.896Z,31.95
2023-03-02T20:18:45.567Z,41.85
2023-03-02T20:21:12.452Z,33.15
2023-03-02T20:23:39.176Z,20.85
2023-03-02T20:26:05.987Z,15.68
2023-03-02T20:28:33.104Z,16.92
2023-03-02T20:31:04.697Z,20.02
2023-03-02T20:33:35.683Z,22.38
2023-03-02T20:36:03.821Z,20.90
2023-03-02T20:38:35.028Z,29.98
2023-03-02T20:41:02.385Z,23.50
2023-03-02T20:43:29.518Z,31.38
2023-03-02T20:45:56.845Z,28.40
2023-03-02T20:48:23.703Z,25.90
2023-03-02T20:50:51.099Z,31.35
2023-03-02T20:53:18.224Z,23.75
2023-03-02T20:55:45.464Z,28.67
2023-03-02T20:58:13.593Z,17.02
2023-03-02T21:00:40.710Z,20.80
2023-03-02T21:03:08.393Z,21.38
2023-03-02T21:05:40.041Z,21.80
2023-03-02T21:08:08.729Z,15.55
2023-03-02T21:10:38.032Z,15.90
2023-03-02T21:13:07.637Z,14.02
2023-03-02T21:15:35.511Z,13.43
2023-03-02T21:18:02.471Z,15.48
2023-03-02T21:20:32.056Z,16.52
2023-03-02T21:23:02.502Z,15.50
2023-03-02T21:25:29.299Z,22.00
2023-03-02T21:27:56.131Z,15.95
2023-03-02T21:30:29.314Z,15.68
2023-03-02T21:32:56.814Z,13.57
2023-03-02T21:35:23.947Z,15.77
2023-03-02T21:37:53.859Z,11.95
2023-03-02T21:40:32.806Z,13.10
2023-03-02T21:43:00.590Z,11.80
2023-03-02T21:45:28.193Z,13.35
2023-03-02T21:47:55.375Z,13.48
2023-03-02T21:50:26.921Z,14.35
2023-03-02T21:52:55.637Z,14.45
2023-03-02T21:55:22.537Z,13.45
2023-03-02T21:57:49.380Z,13.50
2023-03-02T22:00:21.036Z,13.40
2023-03-02T22:02:48.313Z,12.45
2023-03-02T22:05:15.434Z,11.23
2023-03-02T22:07:42.596Z,14.27
2023-03-02T22:10:34.874Z,12.10
2023-03-02T22:13:15.012Z,12.82
2023-03-02T22:15:41.888Z,12.05
2023-03-02T22:18:12.471Z,12.57
2023-03-02T22:20:42.217Z,13.68
2023-03-02T22:23:14.487Z,11.98
2023-03-02T22:25:45.613Z,13.70
2023-03-02T22:28:20.974Z,14.95
2023-03-02T22:30:52.472Z,17.45
2023-03-02T22:33:26.539Z,15.20
2023-03-02T22:36:02.197Z,15.35
2023-03-02T22:38:30.744Z,14.55
2023-03-02T22:40:57.840Z,14.70
2023-03-02T22:43:29.297Z,13.70
2023-03-02T22:46:08.539Z,12.50
2023-03-02T22:48:37.254Z,13.98
2023-03-02T22:51:27.558Z,14.20
2023-03-02T22:53:56.966Z,12.82
2023-03-02T22:56:23.729Z,16.60
2023-03-02T22:58:51.490Z,15.40
2023-03-02T23:01:25.922Z,15.07
2023-03-02T23:03:57.200Z,13.93
2023-03-02T23:06:38.669Z,14.75
2023-03-02T23:09:06.755Z,17.70
2023-03-02T23:11:37.696Z,20.70
2023-03-02T23:14:22.072Z,15.70
2023-03-02T23:16:56.920Z,20.20
2023-03-02T23:19:26.736Z,28.08
2023-03-02T23:21:54.127Z,19.73
2023-03-02T23:24:22.137Z,26.80
2023-03-02T23:26:50.882Z,26.92
2023-03-02T23:29:19.761Z,19.98
2023-03-02T23:31:46.866Z,45.28
2023-03-02T23:34:14.070Z,27.58
2023-03-02T23:36:41.316Z,31.55
2023-03-02T23:39:09.762Z,34.15
2023-03-02T23:41:38.556Z,39.88
2023-03-02T23:44:06.841Z,32.75
2023-03-02T23:46:33.692Z,34.47
2023-03-02T23:49:00.679Z,18.83
2023-03-02T23:51:27.523Z,28.67
2023-03-02T23:53:54.938Z,29.77
2023-03-02T23:56:22.164Z,46.53
2023-03-02T23:58:49.192Z,46.65
